createdAt,value
2022-10-14T00:01:17.891Z,64.86
2022-10-14T00:03:45.835Z,65.20
2022-10-14T00:06:20.755Z,64.84
2022-10-14T00:08:47.964Z,64.92
2022-10-14T00:11:19.844Z,64.91
2022-10-14T00:13:47.810Z,65.08
2022-10-14T00:16:21.409Z,64.95
2022-10-14T00:18:49.491Z,65.39
2022-10-14T00:21:17.309Z,65.44
2022-10-14T00:23:45.118Z,65.60
2022-10-14T00:26:22.251Z,65.23
2022-10-14T00:28:49.811Z,65.56
2022-10-14T00:31:17.845Z,65.51
2022-10-14T00:33:48.206Z,65.56
2022-10-14T00:36:17.772Z,65.22
2022-10-14T00:38:48.148Z,65.10
2022-10-14T00:41:25.706Z,65.29
2022-10-14T00:44:04.079Z,65.08
2022-10-14T00:46:39.923Z,65.30
2022-10-14T00:49:12.594Z,65.06
2022-10-14T00:51:41.688Z,65.21
2022-10-14T00:54:10.370Z,65.26
2022-10-14T00:56:37.811Z,65.37
2022-10-14T00:59:10.950Z,65.38
2022-10-14T01:01:38.149Z,65.30
2022-10-14T01:04:05.499Z,64.96
2022-10-14T01:06:44.605Z,65.28
2022-10-14T01:09:40.621Z,65.31
2022-10-14T01:12:28.610Z,65.16
2022-10-14T01:15:15.076Z,64.91
2022-10-14T01:17:57.481Z,65.07
2022-10-14T01:21:02.058Z,65.33
2022-10-14T01:23:53.850Z,65.02
2022-10-14T01:27:05.447Z,65.44
2022-10-14T01:30:03.298Z,65.31
2022-10-14T01:32:55.355Z,65.68
2022-10-14T01:35:41.939Z,65.58
2022-10-14T01:38:36.359Z,65.69
2022-10-14T01:41:30.661Z,65.89
2022-10-14T01:44:05.850Z,66.10
2022-10-14T01:46:37.359Z,66.07
2022-10-14T01:49:10.402Z,66.00
2022-10-14T01:51:44.225Z,66.33
2022-10-14T01:54:19.136Z,65.98
2022-10-14T01:56:48.961Z,66.28
2022-10-14T01:59:20.247Z,66.46
2022-10-14T02:01:47.374Z,66.24
2022-10-14T02:04:21.875Z,66.61
2022-10-14T02:07:03.225Z,66.79
2022-10-14T02:10:02.257Z,66.50
2022-10-14T02:12:50.843Z,66.88
2022-10-14T02:15:20.930Z,66.90
2022-10-14T02:18:15.117Z,67.20
2022-10-14T02:21:20.837Z,67.24
2022-10-14T02:24:15.872Z,67.23
2022-10-14T02:26:43.965Z,67.82
2022-10-14T02:29:12.589Z,67.74
2022-10-14T02:31:43.611Z,67.67
2022-10-14T02:34:16.503Z,67.91
2022-10-14T02:36:45.450Z,67.84
2022-10-14T02:39:18.293Z,68.22
2022-10-14T02:41:45.480Z,68.23
2022-10-14T02:44:12.675Z,68.20
2022-10-14T02:46:41.372Z,68.21
2022-10-14T02:49:10.653Z,68.36
2022-10-14T02:51:37.816Z,68.47
2022-10-14T02:54:04.973Z,68.77
2022-10-14T02:56:32.050Z,68.68
2022-10-14T02:59:00.977Z,68.60
2022-10-14T03:01:31.643Z,68.78
2022-10-14T03:04:02.985Z,68.92
2022-10-14T03:06:30.152Z,69.11
2022-10-14T03:08:59.307Z,69.00
2022-10-14T03:11:26.661Z,69.14
2022-10-14T03:14:00.031Z,69.19
2022-10-14T03:16:27.361Z,69.46
2022-10-14T03:18:54.726Z,69.55
2022-10-14T03:21:34.855Z,69.65
2022-10-14T03:24:01.988Z,69.79
2022-10-14T03:26:33.903Z,69.81
2022-10-14T03:29:01.206Z,69.77
2022-10-14T03:31:57.678Z,70.04
2022-10-14T03:34:31.864Z,70.09
2022-10-14T03:37:05.995Z,70.14
2022-10-14T03:39:37.807Z,70.21
2022-10-14T03:42:06.959Z,70.08
2022-10-14T03:44:41.481Z,70.57
2022-10-14T03:47:21.933Z,70.56
2022-10-14T03:49:49.146Z,70.52
2022-10-14T03:52:24.804Z,70.75
2022-10-14T03:55:06.824Z,70.49
2022-10-14T03:57:34.904Z,70.53
2022-10-14T04:00:02.051Z,70.42
2022-10-14T04:02:42.342Z,70.85
2022-10-14T04:05:38.806Z,70.89
2022-10-14T04:08:11.738Z,71.00
2022-10-14T04:10:42.873Z,70.68
2022-10-14T04:13:13.358Z,71.18
2022-10-14T04:15:40.865Z,71.16
2022-10-14T04:18:21.409Z,71.28
2022-10-14T04:20:51.054Z,71.27
2022-10-14T04:23:21.883Z,71.39
2022-10-14T04:25:54.144Z,71.57
2022-10-14T04:28:24.248Z,71.53
2022-10-14T04:31:01.092Z,71.41
2022-10-14T04:33:35.346Z,71.51
2022-10-14T04:36:10.848Z,71.52
2022-10-14T04:38:42.686Z,71.37
2022-10-14T04:41:13.161Z,71.76
2022-10-14T04:43:46.541Z,71.63
2022-10-14T04:46:36.677Z,71.68
2022-10-14T04:49:04.049Z,71.88
2022-10-14T04:51:37.297Z,71.61
2022-10-14T04:54:16.310Z,71.84
2022-10-14T04:56:48.499Z,71.44
2022-10-14T04:59:15.573Z,71.40
2022-10-14T05:02:01.317Z,71.69
2022-10-14T05:04:37.365Z,71.55
2022-10-14T05:07:04.463Z,71.59
2022-10-14T05:09:32.085Z,71.69
2022-10-14T05:11:59.215Z,71.59
2022-10-14T05:14:36.193Z,71.69
2022-10-14T05:17:15.525Z,71.68
2022-10-14T05:19:42.930Z,71.31
2022-10-14T05:22:10.361Z,71.59
2022-10-14T05:24:42.116Z,71.43
2022-10-14T05:27:09.061Z,71.27
2022-10-14T05:29:36.776Z,71.57
2022-10-14T05:32:04.224Z,71.50
2022-10-14T05:34:41.296Z,71.31
2022-10-14T05:37:11.349Z,71.15
2022-10-14T05:39:51.633Z,70.96
2022-10-14T05:42:22.392Z,70.96
2022-10-14T05:44:52.540Z,70.98
2022-10-14T05:47:19.776Z,71.06
2022-10-14T05:49:49.789Z,70.94
2022-10-14T05:52:18.276Z,70.88
2022-10-14T05:54:45.902Z,71.09
2022-10-14T05:57:17.368Z,70.79
2022-10-14T05:59:44.614Z,71.13
2022-10-14T06:02:11.899Z,70.87
2022-10-14T06:04:41.249Z,70.77
2022-10-14T06:07:12.075Z,70.66
2022-10-14T06:09:39.257Z,70.68
2022-10-14T06:12:06.491Z,70.80
2022-10-14T06:14:33.705Z,70.40
2022-10-14T06:17:01.470Z,70.38
2022-10-14T06:19:32.238Z,69.97
2022-10-14T06:21:59.577Z,69.99
2022-10-14T06:24:26.663Z,69.94
2022-10-14T06:26:53.691Z,69.99
2022-10-14T06:29:20.722Z,70.31
2022-10-14T06:31:47.771Z,70.18
2022-10-14T06:34:14.993Z,69.61
2022-10-14T06:36:42.054Z,69.49
2022-10-14T06:39:09.889Z,69.47
2022-10-14T06:41:36.900Z,69.37
2022-10-14T06:44:03.867Z,69.18
2022-10-14T06:46:30.909Z,68.63
2022-10-14T06:48:57.837Z,68.75
2022-10-14T06:51:24.907Z,68.54
2022-10-14T06:53:51.913Z,68.25
2022-10-14T06:56:18.992Z,68.17
2022-10-14T06:58:45.969Z,67.95
2022-10-14T07:01:13.050Z,67.86
2022-10-14T07:03:40.245Z,67.66
2022-10-14T07:06:08.161Z,67.97
2022-10-14T07:08:35.635Z,67.86
2022-10-14T07:11:03.278Z,67.24
2022-10-14T07:13:30.339Z,58.08
2022-10-14T07:15:57.448Z,58.08
2022-10-14T07:18:24.483Z,46.76
2022-10-14T07:20:51.666Z,46.50
2022-10-14T07:23:18.730Z,47.12
2022-10-14T07:25:45.830Z,48.67
2022-10-14T07:28:12.970Z,50.37
2022-10-14T07:30:40.150Z,51.00
2022-10-14T07:33:07.477Z,52.05
2022-10-14T07:35:34.960Z,53.42
2022-10-14T07:38:02.045Z,53.84
2022-10-14T07:40:29.258Z,54.81
2022-10-14T07:42:56.561Z,55.59
2022-10-14T07:45:24.192Z,55.76
2022-10-14T07:47:51.689Z,55.56
2022-10-14T07:50:18.983Z,56.32
2022-10-14T07:52:45.996Z,56.19
2022-10-14T07:55:13.103Z,56.85
2022-10-14T07:57:40.119Z,56.58
2022-10-14T08:00:08.118Z,56.54
2022-10-14T08:02:41.382Z,56.61
2022-10-14T08:05:32.812Z,56.65
2022-10-14T08:07:55.413Z,56.56
2022-10-14T08:10:22.538Z,57.13
2022-10-14T08:12:49.586Z,56.88
2022-10-14T08:15:16.640Z,57.08
2022-10-14T08:17:43.698Z,56.81
2022-10-14T08:20:10.799Z,56.54
2022-10-14T08:22:37.859Z,56.56
2022-10-14T08:25:05.246Z,56.11
2022-10-14T08:27:32.345Z,56.06
2022-10-14T08:29:59.476Z,56.38
2022-10-14T08:32:26.627Z,55.72
2022-10-14T08:34:56.069Z,55.75
2022-10-14T08:37:23.397Z,55.86
2022-10-14T08:39:50.488Z,56.44
2022-10-14T08:42:38.632Z,55.95
2022-10-14T08:45:15.704Z,55.90
2022-10-14T08:47:46.268Z,55.84
2022-10-14T08:50:34.667Z,55.37
2022-10-14T08:53:17.501Z,55.42
2022-10-14T08:55:48.284Z,55.40
2022-10-14T08:58:29.085Z,55.71
2022-10-14T09:00:57.134Z,55.75
2022-10-14T09:03:33.202Z,56.06
2022-10-14T09:06:05.162Z,56.12
2022-10-14T09:08:43.485Z,56.21
2022-10-14T09:11:16.693Z,56.17
2022-10-14T09:13:47.208Z,57.00
2022-10-14T09:16:24.439Z,56.75
2022-10-14T09:18:57.698Z,57.01
2022-10-14T09:24:31.240Z,57.59
2022-10-14T09:27:04.271Z,58.09
2022-10-14T09:29:37.192Z,57.41
2022-10-14T09:32:12.465Z,57.78
2022-10-14T09:34:48.493Z,57.84
2022-10-14T09:37:31.008Z,57.74
2022-10-14T09:40:13.411Z,58.03
2022-10-14T09:42:49.131Z,58.06
2022-10-14T09:45:22.737Z,58.11
2022-10-14T09:48:04.394Z,58.21
2022-10-14T09:50:36.547Z,57.93
2022-10-14T09:53:47.874Z,58.15
2022-10-14T09:56:17.285Z,58.10
2022-10-14T09:58:55.325Z,57.60
2022-10-14T10:01:26.433Z,57.71
2022-10-14T10:03:55.155Z,57.76
2022-10-14T10:06:28.289Z,57.25
2022-10-14T10:08:55.654Z,57.40
2022-10-14T10:11:40.174Z,57.01
2022-10-14T10:14:29.662Z,56.61
2022-10-14T10:17:08.590Z,56.73
2022-10-14T10:19:37.284Z,56.71
2022-10-14T10:25:12.648Z,56.33
2022-10-14T10:27:48.106Z,56.51
2022-10-14T10:30:24.631Z,56.37
2022-10-14T10:33:01.082Z,56.01
2022-10-14T10:35:52.227Z,55.81
2022-10-14T10:38:58.209Z,54.86
2022-10-14T10:42:16.316Z,54.73
2022-10-14T10:45:02.165Z,55.00
2022-10-14T10:47:45.734Z,55.29
2022-10-14T10:50:36.120Z,55.21
2022-10-14T10:53:23.123Z,55.77
2022-10-14T10:56:09.884Z,55.77
2022-10-14T10:58:58.201Z,56.36
2022-10-14T11:01:50.613Z,56.69
2022-10-14T11:04:32.720Z,56.69
2022-10-14T11:07:25.375Z,56.93
2022-10-14T11:10:32.193Z,56.81
2022-10-14T11:13:23.000Z,57.15
2022-10-14T11:16:23.809Z,56.50
2022-10-14T11:18:53.166Z,56.78
2022-10-14T11:21:44.924Z,56.84
2022-10-14T11:25:07.237Z,56.32
2022-10-14T11:27:48.216Z,56.59
2022-10-14T11:30:19.139Z,56.58
2022-10-14T11:33:10.051Z,56.26
2022-10-14T11:35:55.974Z,56.20
2022-10-14T11:38:40.494Z,56.35
2022-10-14T11:41:30.494Z,56.22
2022-10-14T11:44:15.645Z,56.36
2022-10-14T11:46:48.943Z,56.24
2022-10-14T11:49:27.272Z,56.37
2022-10-14T11:52:06.475Z,56.36
2022-10-14T11:54:57.291Z,56.09
2022-10-14T11:57:42.726Z,56.39
2022-10-14T12:00:30.323Z,56.48
2022-10-14T12:03:17.838Z,56.46
2022-10-14T12:05:44.764Z,56.57
2022-10-14T12:08:27.574Z,56.79
2022-10-14T12:11:14.980Z,56.97
2022-10-14T12:13:52.407Z,56.50
2022-10-14T12:16:23.031Z,56.82
2022-10-14T12:18:55.670Z,57.08
2022-10-14T12:21:32.122Z,56.28
2022-10-14T12:24:14.482Z,56.87
2022-10-14T12:26:55.693Z,56.74
2022-10-14T12:29:31.377Z,57.72
2022-10-14T12:32:04.524Z,57.66
2022-10-14T12:34:41.527Z,58.13
2022-10-14T12:37:43.176Z,58.22
2022-10-14T12:40:13.281Z,58.20
2022-10-14T12:42:59.138Z,58.71
2022-10-14T12:45:29.295Z,58.98
2022-10-14T12:48:16.264Z,59.01
2022-10-14T12:50:45.734Z,58.45
2022-10-14T12:53:26.395Z,58.89
2022-10-14T12:55:59.302Z,58.52
2022-10-14T12:58:34.674Z,58.74
2022-10-14T13:01:31.033Z,58.70
2022-10-14T13:04:19.040Z,58.56
2022-10-14T13:07:42.408Z,58.44
2022-10-14T13:11:00.131Z,58.92
2022-10-14T13:13:42.477Z,58.57
2022-10-14T13:16:11.296Z,58.21
2022-10-14T13:18:44.464Z,57.76
2022-10-14T13:21:32.507Z,57.85
2022-10-14T13:24:21.086Z,57.57
2022-10-14T13:26:53.967Z,57.70
2022-10-14T13:29:21.264Z,57.80
2022-10-14T13:32:09.414Z,57.98
2022-10-14T13:35:07.677Z,57.68
2022-10-14T13:37:34.751Z,57.87
2022-10-14T13:40:20.006Z,57.37
2022-10-14T13:42:52.288Z,57.73
2022-10-14T13:45:22.378Z,57.59
2022-10-14T13:47:50.299Z,57.56
2022-10-14T13:50:31.214Z,57.61
2022-10-14T13:53:03.529Z,58.21
2022-10-14T13:55:30.591Z,58.41
2022-10-14T13:58:12.394Z,58.52
2022-10-14T14:00:58.039Z,58.75
2022-10-14T14:03:42.387Z,59.05
2022-10-14T14:06:17.195Z,59.20
2022-10-14T14:08:48.804Z,59.23
2022-10-14T14:11:26.435Z,59.12
2022-10-14T14:14:06.996Z,59.41
2022-10-14T14:16:38.107Z,59.68
2022-10-14T14:19:09.902Z,59.93
2022-10-14T14:21:38.715Z,60.06
2022-10-14T14:24:22.467Z,60.04
2022-10-14T14:26:54.645Z,59.86
2022-10-14T14:29:31.474Z,59.73
2022-10-14T14:32:06.638Z,60.30
2022-10-14T14:34:37.137Z,60.87
2022-10-14T14:37:25.162Z,60.64
2022-10-14T14:40:01.897Z,61.46
2022-10-14T14:42:37.429Z,61.93
2022-10-14T14:45:26.422Z,61.65
2022-10-14T14:47:56.899Z,62.04
2022-10-14T14:50:34.168Z,61.76
2022-10-14T14:53:07.521Z,61.98
2022-10-14T14:55:40.244Z,62.25
2022-10-14T14:58:23.523Z,61.90
2022-10-14T15:00:51.802Z,62.38
2022-10-14T15:03:19.171Z,62.55
2022-10-14T15:05:56.617Z,62.73
2022-10-14T15:08:30.586Z,62.76
2022-10-14T15:10:59.868Z,62.68
2022-10-14T15:13:44.703Z,62.89
2022-10-14T15:16:12.924Z,62.90
2022-10-14T15:18:43.618Z,62.68
2022-10-14T15:21:13.315Z,63.19
2022-10-14T15:23:40.410Z,62.97
2022-10-14T15:26:24.231Z,62.76
2022-10-14T15:29:15.488Z,62.71
2022-10-14T15:32:02.506Z,62.80
2022-10-14T15:34:29.803Z,62.86
2022-10-14T15:36:57.943Z,62.95
2022-10-14T15:39:24.980Z,63.22
2022-10-14T15:41:52.033Z,63.07
2022-10-14T15:44:19.050Z,63.41
2022-10-14T15:47:05.514Z,63.66
2022-10-14T15:49:42.508Z,63.17
2022-10-14T15:52:20.525Z,63.28
2022-10-14T15:54:50.908Z,63.48
2022-10-14T15:57:18.036Z,63.45
2022-10-14T15:59:48.560Z,63.28
2022-10-14T16:02:23.536Z,63.43
2022-10-14T16:05:18.179Z,63.37
2022-10-14T16:07:39.387Z,63.67
2022-10-14T16:10:07.538Z,63.73
2022-10-14T16:12:36.129Z,64.10
2022-10-14T16:17:37.058Z,63.98
2022-10-14T16:20:04.547Z,63.75
2022-10-14T16:22:31.670Z,63.73
2022-10-14T16:24:58.770Z,64.34
2022-10-14T16:27:26.257Z,63.75
2022-10-14T16:29:53.418Z,64.31
2022-10-14T16:32:22.204Z,64.19
2022-10-14T16:34:49.487Z,64.10
2022-10-14T16:37:16.857Z,64.34
2022-10-14T16:39:44.352Z,63.87
2022-10-14T16:42:12.127Z,64.36
2022-10-14T16:44:39.795Z,64.13
2022-10-14T16:47:20.371Z,64.44
2022-10-14T16:49:49.378Z,64.37
2022-10-14T16:52:17.702Z,64.12
2022-10-14T16:54:44.950Z,64.13
2022-10-14T16:57:13.113Z,63.96
2022-10-14T16:59:40.737Z,64.24
2022-10-14T17:02:11.142Z,63.91
2022-10-14T17:04:39.410Z,64.40
2022-10-14T17:07:09.584Z,63.84
2022-10-14T17:09:38.902Z,64.33
2022-10-14T17:12:17.360Z,64.16
2022-10-14T17:14:44.419Z,64.09
2022-10-14T17:17:13.195Z,64.08
2022-10-14T17:19:41.428Z,64.21
2022-10-14T17:22:08.686Z,64.11
2022-10-14T17:24:35.712Z,64.23
2022-10-14T17:27:05.095Z,63.90
2022-10-14T17:29:32.412Z,64.16
2022-10-14T17:31:59.585Z,63.95
2022-10-14T17:34:26.664Z,64.22
2022-10-14T17:36:54.445Z,64.62
2022-10-14T17:39:27.603Z,64.50
2022-10-14T17:41:56.778Z,64.13
2022-10-14T17:44:23.939Z,64.42
2022-10-14T17:46:51.252Z,63.91
2022-10-14T17:49:18.504Z,63.78
2022-10-14T17:51:45.672Z,63.69
2022-10-14T17:54:12.768Z,63.92
2022-10-14T17:56:40.504Z,63.90
2022-10-14T17:59:11.538Z,63.61
2022-10-14T18:04:26.955Z,64.12
2022-10-14T18:06:54.438Z,63.94
2022-10-14T18:09:21.812Z,63.77
2022-10-14T18:14:42.004Z,64.06
2022-10-14T18:17:13.353Z,63.50
2022-10-14T18:19:45.977Z,63.60
2022-10-14T18:22:14.726Z,63.41
2022-10-14T18:24:44.488Z,63.50
2022-10-14T18:27:11.867Z,63.54
2022-10-14T18:29:39.891Z,63.73
2022-10-14T18:32:07.627Z,63.37
2022-10-14T18:34:34.618Z,63.67
2022-10-14T18:37:02.826Z,63.23
2022-10-14T18:39:31.461Z,63.68
2022-10-14T18:41:59.333Z,63.80
2022-10-14T18:44:26.631Z,63.80
2022-10-14T18:46:54.085Z,63.33
2022-10-14T18:49:21.771Z,63.68
2022-10-14T18:51:49.533Z,63.21
2022-10-14T18:54:22.470Z,63.58
2022-10-14T18:56:49.614Z,63.40
2022-10-14T18:59:20.023Z,63.27
2022-10-14T19:01:48.629Z,63.27
2022-10-14T19:04:16.077Z,63.30
2022-10-14T19:06:48.920Z,63.30
2022-10-14T19:09:20.156Z,63.54
2022-10-14T19:11:53.921Z,63.43
2022-10-14T19:14:22.623Z,63.07
2022-10-14T19:16:51.299Z,63.46
2022-10-14T19:19:20.980Z,63.26
2022-10-14T19:21:50.356Z,62.95
2022-10-14T19:24:19.556Z,63.55
2022-10-14T19:26:50.268Z,63.47
2022-10-14T19:29:18.129Z,63.37
2022-10-14T19:31:45.271Z,62.89
2022-10-14T19:34:15.030Z,63.04
2022-10-14T19:36:42.934Z,63.11
2022-10-14T19:39:13.495Z,63.28
2022-10-14T19:41:44.547Z,63.50
2022-10-14T19:44:12.630Z,63.01
2022-10-14T19:46:39.776Z,63.55
2022-10-14T19:49:06.881Z,63.44
2022-10-14T19:51:35.147Z,63.33
2022-10-14T19:54:02.424Z,63.30
2022-10-14T19:56:29.816Z,63.32
2022-10-14T19:58:58.866Z,63.44
2022-10-14T20:01:29.233Z,63.55
2022-10-14T20:03:57.191Z,63.61
2022-10-14T20:06:24.602Z,63.31
2022-10-14T20:08:51.791Z,63.62
2022-10-14T20:11:21.340Z,63.55
2022-10-14T20:13:48.899Z,63.97
2022-10-14T20:16:17.080Z,63.92
2022-10-14T20:18:44.234Z,63.51
2022-10-14T20:21:14.016Z,63.79
2022-10-14T20:23:41.844Z,63.71
2022-10-14T20:26:13.422Z,64.06
2022-10-14T20:28:40.794Z,64.04
2022-10-14T20:31:10.265Z,63.84
2022-10-14T20:33:37.809Z,64.28
2022-10-14T20:36:11.639Z,63.84
2022-10-14T20:38:39.896Z,63.80
2022-10-14T20:41:15.544Z,64.19
2022-10-14T20:43:44.160Z,63.87
2022-10-14T20:46:11.843Z,64.04
2022-10-14T20:48:39.060Z,64.07
2022-10-14T20:51:11.560Z,63.79
2022-10-14T20:53:38.615Z,63.96
2022-10-14T20:56:08.627Z,63.94
2022-10-14T20:58:36.577Z,64.23
2022-10-14T21:01:12.610Z,64.74
2022-10-14T21:03:40.748Z,64.32
2022-10-14T21:06:12.487Z,64.28
2022-10-14T21:08:40.090Z,64.44
2022-10-14T21:11:13.967Z,64.55
2022-10-14T21:13:47.946Z,64.74
2022-10-14T21:16:30.166Z,64.59
2022-10-14T21:19:10.176Z,64.54
2022-10-14T21:21:40.703Z,65.13
2022-10-14T21:24:09.253Z,64.52
2022-10-14T21:26:36.287Z,64.57
2022-10-14T21:29:04.654Z,64.68
2022-10-14T21:31:32.192Z,64.89
2022-10-14T21:34:05.863Z,64.92
2022-10-14T21:36:35.352Z,64.61
2022-10-14T21:39:11.081Z,64.77
2022-10-14T21:41:38.939Z,64.98
2022-10-14T21:44:06.788Z,64.76
2022-10-14T21:46:35.357Z,64.82
2022-10-14T21:49:02.726Z,64.86
2022-10-14T21:51:31.129Z,64.63
2022-10-14T21:53:58.766Z,64.38
2022-10-14T21:56:26.835Z,64.75
2022-10-14T21:58:54.511Z,64.43
2022-10-14T22:01:30.865Z,64.11
2022-10-14T22:04:06.323Z,64.36
2022-10-14T22:06:35.028Z,64.41
2022-10-14T22:09:05.025Z,64.34
2022-10-14T22:11:35.137Z,63.93
2022-10-14T22:14:04.225Z,64.16
2022-10-14T22:16:31.426Z,64.21
2022-10-14T22:19:00.972Z,63.94
2022-10-14T22:21:30.247Z,63.83
2022-10-14T22:23:59.001Z,63.83
2022-10-14T22:26:28.445Z,64.37
2022-10-14T22:29:15.445Z,64.21
2022-10-14T22:31:43.254Z,64.13
2022-10-14T22:34:16.016Z,64.34
2022-10-14T22:36:43.649Z,64.17
2022-10-14T22:39:15.167Z,64.39
2022-10-14T22:41:42.461Z,64.53
2022-10-14T22:44:10.372Z,64.08
2022-10-14T22:46:39.011Z,64.52
2022-10-14T22:49:06.938Z,64.62
2022-10-14T22:51:37.463Z,64.41
2022-10-14T22:54:04.713Z,64.20
2022-10-14T22:56:32.821Z,64.05
2022-10-14T22:59:02.970Z,64.28
2022-10-14T23:01:30.806Z,64.26
2022-10-14T23:03:59.406Z,64.33
2022-10-14T23:06:27.362Z,64.38
2022-10-14T23:08:54.747Z,64.42
2022-10-14T23:11:24.339Z,64.26
2022-10-14T23:13:52.099Z,64.56
2022-10-14T23:16:27.338Z,64.55
2022-10-14T23:18:54.954Z,64.31
2022-10-14T23:21:28.539Z,64.32
2022-10-14T23:23:57.161Z,64.55
2022-10-14T23:26:26.932Z,64.75
2022-10-14T23:28:58.385Z,64.45
2022-10-14T23:31:31.054Z,64.69
2022-10-14T23:33:59.746Z,64.53
2022-10-14T23:36:27.150Z,64.59
2022-10-14T23:38:54.470Z,64.89
2022-10-14T23:41:23.117Z,64.55
2022-10-14T23:43:52.210Z,64.52
2022-10-14T23:46:20.512Z,64.95
2022-10-14T23:48:55.820Z,64.41
2022-10-14T23:51:35.124Z,64.60
2022-10-14T23:54:02.326Z,64.46
2022-10-14T23:56:29.460Z,64.56
2022-10-14T23:58:56.547Z,64.54
